Time;durP1;ratioP1;P1;durP2;ratioP2;P2;SDS_P1;SDS_P2;PMS_P1;PMS_P2;Temp;Humidity;BMP_temperature;BMP_pressure;BME280_temperature;BME280_humidity;BME280_pressure;Samples;Min_cycle;Max_cycle;Signal;HPM_P1;HPM_P2
2021/06/05 00:00:10;;;;;;;12.07;8.30;;;;;;;;;;10518541;28;20239;-68
2021/06/05 00:05:12;;;;;;;11.97;8.77;;;;;;;;;;10519597;28;20314;-68
2021/06/05 00:10:18;;;;;;;12.20;7.83;;;;;;;;;;10522862;28;20632;-68
2021/06/05 00:15:21;;;;;;;11.87;7.90;;;;;;;;;;10520192;28;20704;-69
2021/06/05 00:20:23;;;;;;;12.43;8.70;;;;;;;;;;10521071;28;20216;-68
2021/06/05 00:25:27;;;;;;;10.67;8.20;;;;;;;;;;10526282;28;20211;-69
2021/06/05 00:30:30;;;;;;;11.00;8.00;;;;;;;;;;10515826;28;20212;-68
2021/06/05 00:35:32;;;;;;;12.17;8.13;;;;;;;;;;10526622;28;20303;-69
2021/06/05 00:40:38;;;;;;;11.93;7.93;;;;;;;;;;10528993;28;20215;-69
2021/06/05 00:45:41;;;;;;;13.37;9.43;;;;;;;;;;10516861;28;20224;-68
2021/06/05 00:50:43;;;;;;;11.47;7.80;;;;;;;;;;10514175;28;20189;-68
2021/06/05 00:55:48;;;;;;;10.70;7.23;;;;;;;;;;10525567;28;20298;-68
2021/06/05 01:00:51;;;;;;;10.93;6.70;;;;;;;;;;10508239;28;20208;-69
2021/06/05 01:05:55;;;;;;;9.70;6.43;;;;;;;;;;10523820;28;20216;-68
2021/06/05 01:11:03;;;;;;;8.77;5.63;;;;;;;;;;10529083;28;20286;-69
2021/06/05 01:16:07;;;;;;;7.50;4.63;;;;;;;;;;10526472;28;20223;-69
2021/06/05 01:21:19;;;;;;;8.30;4.17;;;;;;;;;;10524222;28;20266;-69
2021/06/05 01:26:23;;;;;;;6.50;4.03;;;;;;;;;;10520961;28;20653;-69
2021/06/05 01:31:26;;;;;;;7.30;4.63;;;;;;;;;;10519289;28;20266;-69
2021/06/05 01:36:29;;;;;;;7.03;4.23;;;;;;;;;;10518872;28;20373;-68
2021/06/05 01:41:33;;;;;;;8.13;4.90;;;;;;;;;;10524568;28;20207;-68
2021/06/05 01:46:37;;;;;;;8.13;5.03;;;;;;;;;;10516916;28;20207;-69
2021/06/05 01:51:40;;;;;;;8.87;5.50;;;;;;;;;;10524217;28;20219;-69
2021/06/05 01:56:46;;;;;;;8.93;5.40;;;;;;;;;;10520514;28;20635;-69
2021/06/05 02:01:48;;;;;;;8.40;4.83;;;;;;;;;;10509191;28;20220;-69
2021/06/05 02:06:51;;;;;;;8.90;5.90;;;;;;;;;;10519941;28;20393;-69
2021/06/05 02:11:57;;;;;;;8.83;5.70;;;;;;;;;;10503327;28;20283;-69
2021/06/05 02:17:00;;;;;;;9.20;6.40;;;;;;;;;;10517369;28;20537;-69
2021/06/05 02:22:05;;;;;;;11.03;7.13;;;;;;;;;;10519968;28;20219;-71
2021/06/05 02:27:09;;;;;;;10.80;7.27;;;;;;;;;;10527460;28;20292;-69
2021/06/05 02:32:13;;;;;;;12.57;7.80;;;;;;;;;;10520988;28;20180;-68
2021/06/05 02:37:17;;;;;;;10.97;8.20;;;;;;;;;;10523002;28;20272;-67
2021/06/05 02:42:21;;;;;;;11.47;7.53;;;;;;;;;;10519126;28;20211;-68
2021/06/05 02:47:25;;;;;;;15.37;10.40;;;;;;;;;;10515701;28;20707;-67
2021/06/05 02:52:29;;;;;;;12.33;9.60;;;;;;;;;;10520436;28;20242;-67
2021/06/05 02:57:33;;;;;;;15.27;10.27;;;;;;;;;;10519056;28;20212;-70
2021/06/05 03:02:53;;;;;;;13.10;9.87;;;;;;;;;;10509004;28;20717;-68
2021/06/05 03:07:56;;;;;;;15.23;10.50;;;;;;;;;;10514308;28;20219;-67
2021/06/05 03:13:00;;;;;;;14.63;10.13;;;;;;;;;;10521651;28;20231;-69
2021/06/05 03:18:04;;;;;;;15.37;11.13;;;;;;;;;;10519768;28;20219;-70
2021/06/05 03:23:06;;;;;;;13.97;10.33;;;;;;;;;;10527339;28;20788;-70
2021/06/05 03:28:10;;;;;;;15.17;11.03;;;;;;;;;;10519854;28;20227;-67
2021/06/05 03:33:12;;;;;;;15.67;10.17;;;;;;;;;;10529347;28;20196;-68
2021/06/05 03:38:15;;;;;;;14.23;10.00;;;;;;;;;;10524609;28;20717;-67
2021/06/05 03:43:18;;;;;;;11.77;8.90;;;;;;;;;;10514501;28;20200;-68
2021/06/05 03:48:20;;;;;;;12.37;8.40;;;;;;;;;;10521429;28;20334;-67
2021/06/05 03:53:23;;;;;;;12.10;7.63;;;;;;;;;;10525122;28;20945;-68
2021/06/05 03:58:29;;;;;;;12.30;7.63;;;;;;;;;;10515322;28;20191;-68
2021/06/05 04:03:31;;;;;;;11.97;7.00;;;;;;;;;;10523260;28;20212;-69
2021/06/05 04:08:33;;;;;;;10.27;6.50;;;;;;;;;;10517011;28;20204;-69
2021/06/05 04:13:36;;;;;;;11.53;6.73;;;;;;;;;;10521590;28;20224;-68
2021/06/05 04:18:59;;;;;;;10.03;6.00;;;;;;;;;;10526360;28;20208;-68
2021/06/05 04:24:21;;;;;;;9.70;6.40;;;;;;;;;;10517600;28;20587;-68
2021/06/05 04:29:24;;;;;;;9.73;6.13;;;;;;;;;;10528267;28;20220;-68
2021/06/05 04:34:26;;;;;;;9.50;5.93;;;;;;;;;;10530636;28;20215;-68
2021/06/05 04:39:28;;;;;;;8.40;5.90;;;;;;;;;;10523885;28;20188;-68
2021/06/05 04:44:32;;;;;;;10.67;6.27;;;;;;;;;;10526074;28;20275;-68
2021/06/05 04:49:34;;;;;;;9.73;5.33;;;;;;;;;;10516653;28;20269;-67
2021/06/05 04:54:36;;;;;;;9.77;5.60;;;;;;;;;;10523542;28;20212;-69
2021/06/05 04:59:39;;;;;;;9.03;5.40;;;;;;;;;;10519307;28;20284;-67
2021/06/05 05:04:43;;;;;;;9.23;4.53;;;;;;;;;;10518208;28;20505;-68
2021/06/05 05:09:45;;;;;;;7.83;4.53;;;;;;;;;;10512750;28;21946;-68
2021/06/05 05:14:48;;;;;;;7.90;4.40;;;;;;;;;;10507804;28;20291;-67
2021/06/05 05:19:51;;;;;;;7.07;3.80;;;;;;;;;;10518767;28;20196;-67
2021/06/05 05:24:53;;;;;;;6.40;3.70;;;;;;;;;;10517724;28;20227;-68
2021/06/05 05:29:56;;;;;;;6.20;3.47;;;;;;;;;;10513658;28;20659;-69
2021/06/05 05:34:58;;;;;;;7.07;3.33;;;;;;;;;;10514333;28;20219;-67
2021/06/05 05:40:00;;;;;;;5.97;3.00;;;;;;;;;;10509215;28;20203;-68
2021/06/05 05:45:05;;;;;;;7.47;3.00;;;;;;;;;;10531236;28;20220;-68
2021/06/05 05:50:08;;;;;;;5.00;2.50;;;;;;;;;;10515240;28;20195;-67
2021/06/05 05:55:10;;;;;;;5.10;2.63;;;;;;;;;;10522973;28;20656;-67
2021/06/05 06:00:17;;;;;;;3.50;2.30;;;;;;;;;;10519639;28;20694;-68
2021/06/05 06:05:19;;;;;;;5.27;2.20;;;;;;;;;;10525031;28;20235;-68
2021/06/05 06:10:22;;;;;;;6.13;2.20;;;;;;;;;;10529407;28;20196;-68
2021/06/05 06:15:27;;;;;;;3.70;2.03;;;;;;;;;;10504443;28;20261;-68
2021/06/05 06:20:30;;;;;;;3.13;1.90;;;;;;;;;;10525705;28;20309;-68
2021/06/05 06:25:38;;;;;;;3.80;2.20;;;;;;;;;;10515089;28;20214;-69
2021/06/05 06:30:43;;;;;;;2.83;1.70;;;;;;;;;;10516517;28;20288;-69
2021/06/05 06:35:45;;;;;;;3.10;1.90;;;;;;;;;;10516013;28;20220;-69
2021/06/05 06:40:47;;;;;;;4.43;1.70;;;;;;;;;;10515776;28;20498;-69
2021/06/05 06:45:51;;;;;;;3.37;1.63;;;;;;;;;;10516223;28;20663;-68
2021/06/05 06:50:53;;;;;;;2.43;1.40;;;;;;;;;;10527578;28;20196;-68
2021/06/05 06:55:55;;;;;;;3.00;1.53;;;;;;;;;;10532694;28;20223;-69
2021/06/05 07:00:58;;;;;;;1.87;1.30;;;;;;;;;;10521935;28;20242;-69
2021/06/05 07:06:01;;;;;;;3.40;1.30;;;;;;;;;;10521251;28;20307;-68
2021/06/05 07:11:04;;;;;;;2.90;1.27;;;;;;;;;;10517560;28;20207;-69
2021/06/05 07:16:08;;;;;;;1.10;1.00;;;;;;;;;;10533714;28;20216;-68
2021/06/05 07:21:11;;;;;;;2.47;1.30;;;;;;;;;;10514578;28;20659;-68
2021/06/05 07:26:14;;;;;;;2.13;1.50;;;;;;;;;;10529935;28;20794;-68
2021/06/05 07:31:19;;;;;;;2.23;1.40;;;;;;;;;;10529114;28;20275;-68
2021/06/05 07:36:23;;;;;;;2.97;1.30;;;;;;;;;;10532765;28;20695;-69
2021/06/05 07:41:25;;;;;;;2.33;1.45;;;;;;;;;;10519521;28;20253;-68
2021/06/05 07:46:28;;;;;;;1.92;1.30;;;;;;;;;;10523239;28;20318;-68
2021/06/05 07:51:31;;;;;;;1.50;1.40;;;;;;;;;;10519146;28;20196;-69
2021/06/05 07:56:33;;;;;;;1.98;1.45;;;;;;;;;;10523995;28;20235;-69
2021/06/05 08:01:36;;;;;;;2.35;1.58;;;;;;;;;;10517201;28;20326;-69
2021/06/05 08:06:39;;;;;;;1.50;1.23;;;;;;;;;;10526754;28;20207;-70
2021/06/05 08:11:41;;;;;;;1.42;1.17;;;;;;;;;;10515301;28;20317;-67
2021/06/05 08:16:44;;;;;;;2.55;1.38;;;;;;;;;;10531339;28;20215;-68
2021/06/05 08:21:47;;;;;;;2.00;1.35;;;;;;;;;;10513402;28;20211;-69
2021/06/05 08:26:51;;;;;;;2.53;1.50;;;;;;;;;;10527772;28;20215;-69
2021/06/05 08:31:54;;;;;;;2.30;1.40;;;;;;;;;;10520597;28;20242;-68
2021/06/05 08:36:56;;;;;;;2.97;1.65;;;;;;;;;;10528849;28;20598;-69
2021/06/05 08:42:00;;;;;;;1.88;1.50;;;;;;;;;;10515656;28;20307;-67
2021/06/05 08:47:06;;;;;;;2.70;1.50;;;;;;;;;;10509822;28;20216;-71
2021/06/05 08:52:09;;;;;;;2.75;1.55;;;;;;;;;;10522943;28;20570;-69
2021/06/05 08:57:15;;;;;;;2.22;1.58;;;;;;;;;;10520558;28;20258;-69
2021/06/05 09:02:20;;;;;;;4.13;1.50;;;;;;;;;;10527349;28;20239;-68
2021/06/05 09:07:24;;;;;;;1.85;1.40;;;;;;;;;;10514756;28;20211;-69
2021/06/05 09:12:26;;;;;;;2.28;1.50;;;;;;;;;;10512799;28;20195;-69
2021/06/05 09:17:35;;;;;;;3.88;1.30;;;;;;;;;;10516794;28;20280;-68
2021/06/05 09:22:39;;;;;;;2.20;1.40;;;;;;;;;;10519794;28;20238;-69
2021/06/05 09:27:41;;;;;;;2.30;1.50;;;;;;;;;;10519597;28;20200;-69
2021/06/05 09:32:56;;;;;;;2.67;1.83;;;;;;;;;;10526629;28;20207;-70
2021/06/05 09:38:13;;;;;;;2.70;1.42;;;;;;;;;;10523324;28;20235;-70
2021/06/05 09:43:18;;;;;;;2.83;1.55;;;;;;;;;;10522208;28;20250;-69
2021/06/05 09:48:23;;;;;;;4.60;2.20;;;;;;;;;;10530174;28;20226;-70
2021/06/05 09:53:26;;;;;;;1.60;1.10;;;;;;;;;;10525109;28;20281;-70
2021/06/05 09:58:36;;;;;;;1.52;1.33;;;;;;;;;;10520027;28;20651;-70
2021/06/05 10:03:40;;;;;;;3.28;1.35;;;;;;;;;;10517208;28;20700;-69
2021/06/05 10:08:42;;;;;;;2.50;1.50;;;;;;;;;;10528592;28;20223;-68
2021/06/05 10:13:46;;;;;;;2.75;1.60;;;;;;;;;;10520237;28;20224;-70
2021/06/05 10:18:52;;;;;;;3.42;1.77;;;;;;;;;;10514873;28;20249;-71
2021/06/05 10:23:58;;;;;;;5.80;4.47;;;;;;;;;;10515730;28;20230;-69
2021/06/05 10:29:01;;;;;;;1.60;1.40;;;;;;;;;;10511220;28;20286;-69
2021/06/05 10:34:09;;;;;;;3.42;1.50;;;;;;;;;;10534379;28;20223;-70
2021/06/05 10:39:12;;;;;;;2.50;1.40;;;;;;;;;;10513754;28;20279;-69
2021/06/05 10:44:14;;;;;;;1.20;1.10;;;;;;;;;;10527144;28;20254;-69
2021/06/05 10:49:23;;;;;;;1.23;1.13;;;;;;;;;;10528183;28;20575;-70
2021/06/05 10:54:27;;;;;;;2.05;1.25;;;;;;;;;;10529994;28;20208;-70
2021/06/05 10:59:37;;;;;;;2.22;1.30;;;;;;;;;;10526890;28;20188;-68
2021/06/05 11:04:45;;;;;;;2.08;1.27;;;;;;;;;;10518884;28;20629;-69
2021/06/05 11:09:49;;;;;;;1.77;1.20;;;;;;;;;;10522678;28;20263;-68
2021/06/05 11:14:51;;;;;;;1.40;1.30;;;;;;;;;;10524471;28;20305;-68
2021/06/05 11:20:15;;;;;;;2.78;1.40;;;;;;;;;;10521269;28;20253;-69
2021/06/05 11:25:26;;;;;;;1.98;1.48;;;;;;;;;;10524190;28;20246;-69
2021/06/05 11:30:38;;;;;;;1.92;1.50;;;;;;;;;;10513910;28;20192;-69
2021/06/05 11:35:43;;;;;;;2.60;1.50;;;;;;;;;;10532127;28;20233;-71
2021/06/05 11:41:04;;;;;;;2.60;1.50;;;;;;;;;;10522108;28;20191;-70
2021/06/05 11:46:08;;;;;;;1.60;1.50;;;;;;;;;;10517317;28;20220;-70
2021/06/05 11:51:43;;;;;;;1.73;1.58;;;;;;;;;;10521084;28;20192;-68
2021/06/05 11:56:48;;;;;;;1.65;1.30;;;;;;;;;;10381484;28;20230;-69
2021/06/05 12:01:50;;;;;;;2.38;1.98;;;;;;;;;;10484368;28;20517;-69
2021/06/05 12:06:53;;;;;;;1.27;1.17;;;;;;;;;;10516639;28;20319;-69
2021/06/05 12:11:58;;;;;;;3.80;1.17;;;;;;;;;;10519705;28;20275;-70
2021/06/05 12:17:00;;;;;;;3.08;1.13;;;;;;;;;;10527428;28;20211;-70
2021/06/05 12:22:11;;;;;;;2.80;1.40;;;;;;;;;;10522520;28;20192;-70
2021/06/05 12:27:20;;;;;;;1.70;1.10;;;;;;;;;;10531796;28;20266;-68
2021/06/05 12:32:24;;;;;;;2.95;1.10;;;;;;;;;;10523273;28;20715;-70
2021/06/05 12:37:30;;;;;;;2.25;1.17;;;;;;;;;;10517799;28;20676;-68
2021/06/05 12:42:35;;;;;;;2.45;1.10;;;;;;;;;;10524900;28;20304;-68
2021/06/05 12:47:39;;;;;;;1.85;1.38;;;;;;;;;;10520469;28;20222;-69
2021/06/05 12:52:42;;;;;;;3.58;1.30;;;;;;;;;;10519441;28;20262;-68
2021/06/05 12:57:46;;;;;;;3.30;1.45;;;;;;;;;;10516188;28;20671;-69
2021/06/05 13:02:49;;;;;;;2.88;1.30;;;;;;;;;;10522030;28;20675;-69
2021/06/05 13:07:52;;;;;;;2.53;1.40;;;;;;;;;;10525387;28;20307;-68
2021/06/05 13:13:08;;;;;;;2.53;1.30;;;;;;;;;;10520220;28;20212;-70
2021/06/05 13:18:12;;;;;;;1.85;1.33;;;;;;;;;;10520357;28;20217;-71
2021/06/05 13:23:20;;;;;;;2.03;1.40;;;;;;;;;;10518433;28;20562;-70
2021/06/05 13:28:28;;;;;;;2.22;1.33;;;;;;;;;;10509547;28;20261;-70
2021/06/05 13:33:36;;;;;;;1.92;1.60;;;;;;;;;;10517469;28;20216;-69
2021/06/05 13:38:51;;;;;;;3.38;1.38;;;;;;;;;;10510125;28;20258;-69
2021/06/05 13:43:54;;;;;;;2.20;1.20;;;;;;;;;;10507836;28;20211;-70
2021/06/05 13:48:56;;;;;;;3.70;1.40;;;;;;;;;;10515085;28;20282;-69
2021/06/05 13:53:59;;;;;;;4.45;1.30;;;;;;;;;;10523545;28;20680;-70
2021/06/05 13:59:02;;;;;;;2.70;1.33;;;;;;;;;;10516266;28;20575;-69
2021/06/05 14:04:07;;;;;;;3.75;1.38;;;;;;;;;;10515284;28;20582;-69
2021/06/05 14:09:12;;;;;;;3.58;1.60;;;;;;;;;;10524156;28;20200;-69
2021/06/05 14:14:16;;;;;;;2.17;1.40;;;;;;;;;;10516911;28;20288;-67
2021/06/05 14:19:18;;;;;;;5.78;1.52;;;;;;;;;;10525682;28;20278;-67
2021/06/05 14:24:20;;;;;;;2.65;1.40;;;;;;;;;;10521237;28;20215;-68
2021/06/05 14:29:23;;;;;;;1.85;1.25;;;;;;;;;;10511043;28;20184;-69
2021/06/05 14:34:25;;;;;;;4.90;1.60;;;;;;;;;;10517411;28;20232;-70
2021/06/05 14:39:27;;;;;;;1.73;1.20;;;;;;;;;;10507020;28;20348;-68
2021/06/05 14:44:32;;;;;;;3.00;1.40;;;;;;;;;;10508646;28;20659;-68
2021/06/05 14:49:34;;;;;;;3.33;1.40;;;;;;;;;;10509825;28;20192;-69
2021/06/05 14:54:36;;;;;;;3.15;1.70;;;;;;;;;;10503192;28;20307;-69
2021/06/05 14:59:39;;;;;;;2.83;1.50;;;;;;;;;;10529968;28;20218;-68
2021/06/05 15:04:41;;;;;;;2.20;1.27;;;;;;;;;;10518158;28;20239;-69
2021/06/05 15:09:44;;;;;;;1.73;1.20;;;;;;;;;;10512296;28;20587;-69
2021/06/05 15:14:47;;;;;;;2.10;1.20;;;;;;;;;;10524955;28;20721;-69
2021/06/05 15:19:51;;;;;;;3.63;1.33;;;;;;;;;;10530609;28;20245;-69
2021/06/05 15:24:53;;;;;;;4.82;2.40;;;;;;;;;;10520925;28;20213;-69
2021/06/05 15:29:56;;;;;;;2.15;1.20;;;;;;;;;;10516672;28;20417;-69
2021/06/05 15:34:58;;;;;;;2.00;1.20;;;;;;;;;;10524220;28;20539;-69
2021/06/05 15:40:03;;;;;;;1.40;1.30;;;;;;;;;;10530111;28;20717;-68
2021/06/05 15:45:10;;;;;;;2.13;1.42;;;;;;;;;;10523147;28;20574;-70
2021/06/05 15:50:13;;;;;;;3.63;1.42;;;;;;;;;;10532275;28;20192;-68
2021/06/05 15:55:17;;;;;;;2.50;1.48;;;;;;;;;;10522387;28;20319;-70
2021/06/05 16:00:22;;;;;;;2.80;1.30;;;;;;;;;;10525368;28;20238;-68
2021/06/05 16:05:25;;;;;;;3.40;1.30;;;;;;;;;;10529397;28;20280;-69
2021/06/05 16:10:28;;;;;;;2.75;1.40;;;;;;;;;;10517985;28;20196;-69
2021/06/05 16:15:33;;;;;;;1.95;0.93;;;;;;;;;;10519288;28;20317;-67
2021/06/05 16:20:35;;;;;;;2.28;1.08;;;;;;;;;;10516653;28;20192;-69
2021/06/05 16:25:38;;;;;;;2.50;1.00;;;;;;;;;;10527526;28;20222;-69
2021/06/05 16:30:41;;;;;;;2.03;1.10;;;;;;;;;;10522497;28;20224;-69
2021/06/05 16:35:45;;;;;;;2.40;1.00;;;;;;;;;;10513965;28;20215;-70
2021/06/05 16:40:49;;;;;;;1.73;1.00;;;;;;;;;;10526532;28;20282;-68
2021/06/05 16:45:53;;;;;;;1.37;0.97;;;;;;;;;;10527737;28;20268;-70
2021/06/05 16:50:56;;;;;;;1.23;0.90;;;;;;;;;;10525964;28;20624;-70
2021/06/05 16:56:00;;;;;;;2.80;1.00;;;;;;;;;;10523449;28;20352;-68
2021/06/05 17:01:14;;;;;;;2.00;0.90;;;;;;;;;;10518051;28;20191;-70
2021/06/05 17:06:16;;;;;;;2.13;1.00;;;;;;;;;;10522139;28;20243;-68
2021/06/05 17:11:35;;;;;;;0.97;0.87;;;;;;;;;;10510084;28;20223;-68
2021/06/05 17:16:39;;;;;;;0.90;0.77;;;;;;;;;;10520811;28;20220;-68
2021/06/05 17:21:41;;;;;;;2.27;1.00;;;;;;;;;;10509424;28;20188;-67
2021/06/05 17:26:43;;;;;;;1.90;0.90;;;;;;;;;;10519016;28;20276;-69
2021/06/05 17:31:46;;;;;;;2.67;1.23;;;;;;;;;;10522630;28;20192;-67
2021/06/05 17:36:49;;;;;;;1.37;0.90;;;;;;;;;;10521860;28;20239;-68
2021/06/05 17:41:51;;;;;;;2.20;0.90;;;;;;;;;;10521186;28;20249;-69
2021/06/05 17:46:54;;;;;;;1.00;0.90;;;;;;;;;;10517529;28;20216;-68
2021/06/05 17:51:56;;;;;;;1.83;0.80;;;;;;;;;;10522322;28;20275;-68
2021/06/05 17:57:00;;;;;;;1.50;0.90;;;;;;;;;;10526857;28;20275;-69
2021/06/05 18:02:04;;;;;;;1.43;1.00;;;;;;;;;;10515538;28;20191;-68
2021/06/05 18:07:07;;;;;;;1.97;1.17;;;;;;;;;;10508677;28;20326;-68
2021/06/05 18:12:10;;;;;;;1.73;0.90;;;;;;;;;;10514279;28;20234;-68
2021/06/05 18:17:16;;;;;;;1.20;0.80;;;;;;;;;;10517927;28;20291;-68
2021/06/05 18:22:19;;;;;;;1.60;1.00;;;;;;;;;;10509695;28;20199;-67
2021/06/05 18:27:21;;;;;;;0.87;0.80;;;;;;;;;;10517751;28;20242;-68
2021/06/05 18:32:25;;;;;;;3.17;0.97;;;;;;;;;;10516055;28;20196;-69
2021/06/05 18:37:28;;;;;;;1.43;0.90;;;;;;;;;;10509570;28;20216;-70
2021/06/05 18:42:30;;;;;;;1.43;0.90;;;;;;;;;;10491469;28;20259;-69
2021/06/05 18:47:33;;;;;;;0.70;0.70;;;;;;;;;;10514776;28;20289;-70
2021/06/05 18:52:36;;;;;;;0.60;0.50;;;;;;;;;;10505106;28;20286;-68
2021/06/05 18:57:38;;;;;;;0.70;0.70;;;;;;;;;;10510281;28;20220;-69
2021/06/05 19:02:42;;;;;;;1.43;0.80;;;;;;;;;;10501965;28;20202;-69
2021/06/05 19:07:44;;;;;;;2.10;0.93;;;;;;;;;;10506710;28;20507;-69
2021/06/05 19:12:47;;;;;;;1.47;0.90;;;;;;;;;;10527397;28;20233;-69
2021/06/05 19:17:50;;;;;;;0.80;0.63;;;;;;;;;;10530319;28;20228;-70
2021/06/05 19:22:52;;;;;;;2.23;0.77;;;;;;;;;;10513182;28;20228;-70
2021/06/05 19:27:55;;;;;;;1.67;1.00;;;;;;;;;;10533564;28;20216;-71
2021/06/05 19:33:01;;;;;;;2.53;1.53;;;;;;;;;;10525783;28;20198;-69
2021/06/05 19:38:04;;;;;;;2.60;1.13;;;;;;;;;;10527554;28;20544;-69
2021/06/05 19:43:06;;;;;;;1.70;1.00;;;;;;;;;;10524604;28;20206;-68
2021/06/05 19:48:11;;;;;;;0.90;0.87;;;;;;;;;;10522308;28;20274;-67
2021/06/05 19:53:14;;;;;;;1.80;1.20;;;;;;;;;;10518378;28;20195;-69
2021/06/05 19:58:19;;;;;;;2.23;1.07;;;;;;;;;;10522439;28;20287;-69
2021/06/05 20:03:22;;;;;;;2.70;1.10;;;;;;;;;;10523894;28;20610;-69
2021/06/05 20:08:25;;;;;;;2.03;0.93;;;;;;;;;;10512910;28;20667;-68
2021/06/05 20:13:27;;;;;;;3.20;1.13;;;;;;;;;;10531878;28;20299;-69
2021/06/05 20:18:31;;;;;;;2.97;1.30;;;;;;;;;;10531656;28;20196;-69
2021/06/05 20:23:35;;;;;;;3.63;1.07;;;;;;;;;;10518952;28;20228;-69
2021/06/05 20:28:38;;;;;;;2.97;1.40;;;;;;;;;;10515984;28;20615;-69
2021/06/05 20:33:42;;;;;;;5.17;1.57;;;;;;;;;;10523066;28;20219;-69
2021/06/05 20:38:44;;;;;;;3.20;1.20;;;;;;;;;;10520916;28;20279;-68
2021/06/05 20:43:46;;;;;;;2.47;1.23;;;;;;;;;;10519147;28;20683;-69
2021/06/05 20:48:50;;;;;;;3.13;1.10;;;;;;;;;;10521734;28;20196;-70
2021/06/05 20:53:52;;;;;;;2.47;1.20;;;;;;;;;;10521514;28;20217;-70
2021/06/05 20:58:54;;;;;;;2.33;1.20;;;;;;;;;;10514636;28;20807;-69
2021/06/05 21:03:58;;;;;;;2.17;1.30;;;;;;;;;;10522056;28;20278;-68
2021/06/05 21:09:01;;;;;;;2.63;1.20;;;;;;;;;;10519165;28;20192;-69
2021/06/05 21:14:04;;;;;;;3.27;1.40;;;;;;;;;;10525839;28;20204;-69
2021/06/05 21:19:08;;;;;;;2.33;1.20;;;;;;;;;;10515750;28;20196;-69
2021/06/05 21:24:12;;;;;;;2.77;1.37;;;;;;;;;;10519097;28;20223;-68
2021/06/05 21:29:15;;;;;;;3.67;1.40;;;;;;;;;;10521105;28;20316;-68
2021/06/05 21:34:18;;;;;;;4.27;1.20;;;;;;;;;;10509091;28;20200;-68
2021/06/05 21:39:20;;;;;;;3.23;1.40;;;;;;;;;;10517357;28;20722;-69
2021/06/05 21:44:23;;;;;;;4.90;1.37;;;;;;;;;;10522433;28;20212;-70
2021/06/05 21:49:26;;;;;;;4.00;1.40;;;;;;;;;;10520418;28;20196;-71
2021/06/05 21:54:28;;;;;;;2.83;1.00;;;;;;;;;;10516489;28;20235;-70
2021/06/05 21:59:30;;;;;;;1.73;1.20;;;;;;;;;;10521512;28;20224;-71
2021/06/05 22:04:34;;;;;;;5.00;1.20;;;;;;;;;;10523479;28;20679;-71
2021/06/05 22:09:36;;;;;;;4.60;1.53;;;;;;;;;;10522278;28;20572;-72
2021/06/05 22:14:40;;;;;;;9.90;5.17;;;;;;;;;;10524889;28;20273;-71
2021/06/05 22:19:45;;;;;;;4.80;1.47;;;;;;;;;;10522611;28;20192;-70
2021/06/05 22:24:47;;;;;;;4.30;1.50;;;;;;;;;;10522333;28;20216;-71
2021/06/05 22:29:49;;;;;;;3.40;1.40;;;;;;;;;;10514007;28;20202;-70
2021/06/05 22:34:52;;;;;;;3.17;0.97;;;;;;;;;;10513383;28;20213;-69
2021/06/05 22:39:54;;;;;;;4.73;1.40;;;;;;;;;;10513301;28;20195;-69
2021/06/05 22:44:56;;;;;;;4.00;1.60;;;;;;;;;;10518771;28;20299;-69
2021/06/05 22:50:00;;;;;;;4.10;1.33;;;;;;;;;;10511720;28;20314;-69
2021/06/05 22:55:06;;;;;;;4.67;1.53;;;;;;;;;;10507202;28;20290;-69
2021/06/05 23:00:10;;;;;;;6.27;1.87;;;;;;;;;;10526086;28;20191;-70
2021/06/05 23:05:14;;;;;;;4.17;1.40;;;;;;;;;;10514386;28;20204;-69
2021/06/05 23:10:17;;;;;;;4.90;1.67;;;;;;;;;;10502085;28;20286;-70
2021/06/05 23:15:19;;;;;;;2.80;1.20;;;;;;;;;;10508298;28;20216;-70
2021/06/05 23:20:24;;;;;;;6.03;1.97;;;;;;;;;;10496078;28;20705;-69
2021/06/05 23:25:27;;;;;;;2.90;0.90;;;;;;;;;;10508974;28;20635;-69
2021/06/05 23:30:29;;;;;;;3.97;1.70;;;;;;;;;;10509936;28;20203;-69
2021/06/05 23:35:35;;;;;;;5.13;1.77;;;;;;;;;;10521094;28;20208;-70
2021/06/05 23:40:38;;;;;;;4.60;1.87;;;;;;;;;;10527683;28;20741;-69
2021/06/05 23:45:40;;;;;;;3.63;1.73;;;;;;;;;;10524172;28;20308;-69
2021/06/05 23:50:44;;;;;;;5.60;1.73;;;;;;;;;;10532933;28;20208;-69
2021/06/05 23:55:48;;;;;;;3.83;1.60;;;;;;;;;;10524281;28;20220;-69
